createdAt,value
2023-11-07T00:03:49.777Z,4.1
2023-11-07T00:06:50.774Z,4.1
2023-11-07T00:08:51.423Z,4.0
2023-11-07T00:11:52.981Z,3.9
2023-11-07T00:13:53.636Z,3.9
2023-11-07T00:16:54.231Z,3.9
2023-11-07T00:18:54.887Z,3.8
2023-11-07T00:21:55.746Z,3.6
2023-11-07T00:23:56.352Z,3.5
2023-11-07T00:26:57.062Z,3.4
2023-11-07T00:28:57.912Z,3.3
2023-11-07T00:31:58.529Z,3.1
2023-11-07T00:34:59.124Z,3.0
2023-11-07T00:36:59.716Z,2.9
2023-11-07T00:39:00.334Z,2.8
2023-11-07T00:44:01.228Z,2.6
2023-11-07T00:47:01.811Z,2.6
2023-11-07T00:50:02.397Z,2.5
2023-11-07T00:52:03.041Z,2.5
2023-11-07T00:55:03.664Z,2.4
2023-11-07T00:57:04.362Z,2.3
2023-11-07T01:00:05.252Z,2.2
2023-11-07T01:02:05.939Z,2.2
2023-11-07T01:05:06.542Z,2.1
2023-11-07T01:07:07.493Z,2.1
2023-11-07T01:10:08.171Z,1.9
2023-11-07T01:12:08.806Z,1.9
2023-11-07T01:15:09.593Z,1.8
2023-11-07T01:17:10.352Z,1.8
2023-11-07T01:20:11.086Z,1.7
2023-11-07T01:25:11.929Z,1.8
2023-11-07T01:28:12.594Z,1.8
2023-11-07T01:30:13.171Z,1.9
2023-11-07T01:33:13.850Z,2.0
2023-11-07T01:35:15.176Z,2.0
2023-11-07T01:38:15.756Z,2.1
2023-11-07T01:40:16.386Z,2.1
2023-11-07T01:43:17.067Z,2.2
2023-11-07T01:45:17.890Z,2.2
2023-11-07T01:48:18.518Z,2.2
2023-11-07T01:50:19.511Z,2.4
2023-11-07T01:53:20.113Z,2.4
2023-11-07T01:55:20.713Z,2.5
2023-11-07T01:58:21.302Z,2.5
2023-11-07T02:01:21.983Z,2.4
2023-11-07T02:06:22.579Z,2.3
2023-11-07T02:08:23.186Z,2.1
2023-11-07T02:11:23.769Z,2.0
2023-11-07T02:13:24.358Z,1.9
2023-11-07T02:16:25.000Z,1.9
2023-11-07T02:18:25.680Z,1.9
2023-11-07T02:21:26.547Z,1.8
2023-11-07T02:23:27.147Z,1.7
2023-11-07T02:26:27.914Z,1.6
2023-11-07T02:28:28.505Z,1.5
2023-11-07T02:31:29.117Z,1.5
2023-11-07T02:33:29.743Z,1.3
2023-11-07T02:36:30.619Z,1.3
2023-11-07T02:38:31.227Z,1.2
2023-11-07T02:41:31.954Z,1.2
2023-11-07T02:46:32.625Z,1.4
2023-11-07T02:49:33.288Z,1.5
2023-11-07T02:51:34.141Z,1.5
2023-11-07T02:54:34.715Z,1.5
2023-11-07T02:56:35.319Z,1.4
2023-11-07T02:59:35.995Z,1.3
2023-11-07T03:01:36.708Z,1.3
2023-11-07T03:04:37.309Z,1.2
2023-11-07T03:06:37.951Z,1.1
2023-11-07T03:09:38.904Z,1.0
2023-11-07T03:11:39.527Z,0.9
2023-11-07T03:14:40.272Z,0.8
2023-11-07T03:16:40.928Z,0.7
2023-11-07T03:19:41.528Z,0.7
2023-11-07T03:21:42.120Z,0.6
2023-11-07T03:26:42.773Z,0.5
2023-11-07T03:29:43.536Z,0.5
2023-11-07T03:32:44.301Z,0.4
2023-11-07T03:34:45.134Z,0.3
2023-11-07T03:37:45.729Z,0.3
2023-11-07T03:39:46.323Z,0.4
2023-11-07T03:42:46.932Z,0.4
2023-11-07T03:44:47.613Z,0.3
2023-11-07T03:47:48.775Z,0.3
2023-11-07T03:49:49.968Z,0.3
2023-11-07T03:52:50.555Z,0.3
2023-11-07T03:54:51.165Z,0.3
2023-11-07T03:57:51.802Z,0.3
2023-11-07T03:59:52.492Z,0.3
2023-11-07T04:02:53.244Z,0.3
2023-11-07T04:07:54.311Z,0.4
2023-11-07T04:10:54.912Z,0.4
2023-11-07T04:12:55.487Z,0.3
2023-11-07T04:15:56.071Z,0.3
2023-11-07T04:17:56.687Z,0.3
2023-11-07T04:20:57.535Z,0.3
2023-11-07T04:22:58.202Z,0.2
2023-11-07T04:25:59.081Z,0.2
2023-11-07T04:27:59.746Z,0.2
2023-11-07T04:31:00.339Z,0.2
2023-11-07T04:33:01.006Z,0.1
2023-11-07T04:36:01.870Z,0.1
2023-11-07T04:38:02.711Z,0.0
2023-11-07T04:41:03.432Z,-0.1
2023-11-07T04:43:04.167Z,-0.1
2023-11-07T04:48:05.001Z,-0.1
2023-11-07T04:51:06.050Z,-0.2
2023-11-07T04:54:06.795Z,-0.3
2023-11-07T04:56:07.504Z,-0.2
2023-11-07T04:59:08.086Z,-0.3
2023-11-07T05:01:08.744Z,-0.4
2023-11-07T05:04:09.479Z,-0.5
2023-11-07T05:06:10.501Z,-0.5
2023-11-07T05:09:11.530Z,-0.5
2023-11-07T05:11:12.238Z,-0.6
2023-11-07T05:14:12.835Z,-0.6
2023-11-07T05:16:13.439Z,-0.5
2023-11-07T05:19:14.099Z,-0.4
2023-11-07T05:21:15.224Z,-0.1
2023-11-07T05:24:15.911Z,-0.1
2023-11-07T05:29:16.694Z,-0.1
2023-11-07T05:32:17.340Z,0.0
2023-11-07T05:34:17.989Z,0.1
2023-11-07T05:37:18.679Z,0.3
2023-11-07T05:39:19.390Z,0.5
2023-11-07T05:42:20.074Z,0.7
2023-11-07T05:44:20.679Z,0.7
2023-11-07T05:47:21.271Z,0.8
2023-11-07T05:49:21.906Z,1.0
2023-11-07T05:52:22.699Z,1.0
2023-11-07T05:54:23.312Z,0.9
2023-11-07T05:57:23.942Z,0.9
2023-11-07T05:59:24.527Z,0.9
2023-11-07T06:02:25.111Z,0.9
2023-11-07T06:04:25.746Z,0.9
2023-11-07T06:10:26.450Z,0.9
2023-11-07T06:12:27.082Z,0.8
2023-11-07T06:15:27.682Z,0.7
2023-11-07T06:17:28.278Z,0.7
2023-11-07T06:20:28.958Z,0.7
2023-11-07T06:22:29.538Z,0.7
2023-11-07T06:25:30.134Z,0.7
2023-11-07T06:27:30.702Z,0.6
2023-11-07T06:30:31.546Z,0.6
2023-11-07T06:32:32.226Z,0.5
2023-11-07T06:35:32.932Z,0.4
2023-11-07T06:37:33.520Z,0.3
2023-11-07T06:40:34.139Z,0.3
2023-11-07T06:42:34.925Z,0.4
2023-11-07T06:45:35.514Z,0.3
2023-11-07T06:50:36.094Z,0.2
2023-11-07T06:52:36.807Z,0.1
2023-11-07T06:55:37.399Z,0.1
2023-11-07T06:57:38.002Z,0.1
2023-11-07T07:00:38.644Z,0.1
2023-11-07T07:03:39.355Z,0.2
2023-11-07T07:05:40.772Z,0.1
2023-11-07T07:08:41.738Z,0.2
2023-11-07T07:10:42.420Z,0.1
2023-11-07T07:13:43.056Z,0.3
2023-11-07T07:15:43.954Z,0.3
2023-11-07T07:18:44.733Z,0.4
2023-11-07T07:20:45.706Z,0.5
2023-11-07T07:23:46.368Z,0.5
2023-11-07T07:25:47.053Z,0.4
2023-11-07T07:30:47.637Z,0.4
2023-11-07T07:33:48.303Z,0.3
2023-11-07T07:35:49.132Z,0.4
2023-11-07T07:38:49.867Z,0.4
2023-11-07T07:41:50.526Z,0.5
2023-11-07T07:43:51.187Z,0.5
2023-11-07T07:46:51.787Z,0.7
2023-11-07T07:48:52.587Z,0.9
2023-11-07T07:51:53.551Z,1.0
2023-11-07T07:53:54.161Z,1.1
2023-11-07T07:56:55.176Z,1.3
2023-11-07T07:58:55.894Z,1.3
2023-11-07T08:01:56.482Z,1.4
2023-11-07T08:03:57.125Z,1.5
2023-11-07T08:06:58.093Z,1.6
2023-11-07T08:11:58.698Z,1.9
2023-11-07T08:13:59.444Z,1.9
2023-11-07T08:17:00.050Z,2.2
2023-11-07T08:19:00.698Z,2.3
2023-11-07T08:22:02.084Z,2.4
2023-11-07T08:25:04.925Z,2.7
2023-11-07T08:27:05.570Z,2.8
2023-11-07T08:30:06.295Z,3.0
2023-11-07T08:32:07.073Z,3.2
2023-11-07T08:35:07.689Z,3.2
2023-11-07T08:37:11.225Z,3.3
2023-11-07T08:40:12.817Z,3.3
2023-11-07T08:42:13.454Z,3.5
2023-11-07T08:45:14.244Z,3.6
2023-11-07T08:47:14.942Z,3.7
2023-11-07T08:52:15.663Z,3.9
2023-11-07T08:55:16.281Z,4.1
2023-11-07T08:57:16.875Z,4.1
2023-11-07T09:00:17.609Z,4.2
2023-11-07T09:02:18.460Z,4.2
2023-11-07T09:05:19.257Z,4.3
2023-11-07T09:07:20.087Z,4.3
2023-11-07T09:10:20.818Z,4.4
2023-11-07T09:13:21.800Z,4.4
2023-11-07T09:15:22.510Z,4.5
2023-11-07T09:18:23.352Z,4.6
2023-11-07T09:20:24.272Z,4.7
2023-11-07T09:23:24.977Z,4.7
2023-11-07T09:25:26.768Z,4.9
2023-11-07T09:28:27.347Z,4.9
2023-11-07T09:33:28.004Z,5.2
2023-11-07T09:35:29.037Z,5.2
2023-11-07T09:38:29.862Z,5.2
2023-11-07T09:40:52.894Z,5.3
2023-11-07T09:42:53.468Z,5.3
2023-11-07T09:45:54.179Z,5.2
2023-11-07T09:48:54.839Z,5.2
2023-11-07T09:50:55.759Z,5.5
2023-11-07T09:53:56.454Z,5.4
2023-11-07T09:55:57.212Z,5.5
2023-11-07T09:58:57.983Z,5.6
2023-11-07T10:00:58.586Z,5.6
2023-11-07T10:03:59.497Z,5.6
2023-11-07T10:06:00.756Z,5.7
2023-11-07T10:09:01.614Z,5.8
2023-11-07T10:14:02.366Z,5.6
2023-11-07T10:16:13.330Z,5.6
2023-11-07T10:19:19.876Z,5.5
2023-11-07T10:21:20.726Z,5.4
2023-11-07T10:24:21.496Z,5.5
2023-11-07T10:26:22.280Z,5.6
2023-11-07T10:29:22.948Z,5.6
2023-11-07T10:31:23.550Z,5.7
2023-11-07T10:34:24.157Z,5.8
2023-11-07T10:36:24.834Z,5.8
2023-11-07T10:39:25.617Z,5.8
2023-11-07T10:41:26.342Z,5.9
2023-11-07T10:44:27.147Z,5.9
2023-11-07T10:46:27.916Z,6.0
2023-11-07T10:49:28.799Z,6.2
2023-11-07T10:54:29.527Z,6.2
2023-11-07T10:57:30.156Z,6.3
2023-11-07T10:59:30.813Z,6.2
2023-11-07T11:02:31.444Z,6.2
2023-11-07T11:04:32.165Z,6.0
2023-11-07T11:07:32.990Z,6.0
2023-11-07T11:09:33.609Z,6.0
2023-11-07T11:12:34.229Z,5.9
2023-11-07T11:14:34.846Z,5.9
2023-11-07T11:17:35.500Z,5.9
2023-11-07T11:19:36.401Z,5.8
2023-11-07T11:22:37.385Z,6.0
2023-11-07T11:24:37.999Z,5.9
2023-11-07T11:27:38.601Z,6.0
2023-11-07T11:30:39.288Z,6.0
2023-11-07T11:35:40.231Z,6.0
2023-11-07T11:37:40.861Z,6.1
2023-11-07T11:40:41.473Z,6.2
2023-11-07T11:42:42.059Z,6.3
2023-11-07T11:45:44.725Z,6.2
2023-11-07T11:47:48.286Z,6.2
2023-11-07T11:50:49.240Z,6.4
2023-11-07T11:52:49.890Z,6.4
2023-11-07T11:55:50.487Z,6.5
2023-11-07T11:57:51.081Z,6.6
2023-11-07T12:00:51.702Z,6.5
2023-11-07T12:02:52.522Z,6.6
2023-11-07T12:05:53.612Z,6.6
2023-11-07T12:07:54.385Z,6.6
2023-11-07T12:10:55.093Z,6.6
2023-11-07T12:15:55.709Z,6.6
2023-11-07T12:17:56.439Z,6.7
2023-11-07T12:20:57.569Z,6.7
2023-11-07T12:23:58.270Z,6.8
2023-11-07T12:25:59.078Z,6.8
2023-11-07T12:28:59.676Z,6.7
2023-11-07T12:31:02.779Z,6.8
2023-11-07T12:33:23.306Z,6.8
2023-11-07T12:36:24.333Z,6.9
2023-11-07T12:38:25.056Z,7.0
2023-11-07T12:41:25.828Z,7.2
2023-11-07T12:43:26.433Z,7.2
2023-11-07T12:46:27.162Z,7.2
2023-11-07T12:48:27.785Z,7.3
2023-11-07T12:51:28.940Z,7.5
2023-11-07T12:56:29.677Z,7.0
2023-11-07T12:59:30.299Z,6.9
2023-11-07T13:01:30.952Z,6.8
2023-11-07T13:04:31.577Z,6.7
2023-11-07T13:06:32.402Z,6.6
2023-11-07T13:09:33.364Z,6.4
2023-11-07T13:11:34.296Z,6.1
2023-11-07T13:14:34.878Z,6.0
2023-11-07T13:16:35.572Z,5.9
2023-11-07T13:19:36.215Z,5.8
2023-11-07T13:21:37.003Z,5.9
2023-11-07T13:26:37.702Z,5.9
2023-11-07T13:29:38.311Z,5.9
2023-11-07T13:32:38.916Z,5.8
2023-11-07T13:37:39.972Z,5.8
2023-11-07T13:39:40.772Z,5.8
2023-11-07T13:42:41.414Z,5.8
2023-11-07T13:44:42.020Z,5.7
2023-11-07T13:47:42.682Z,5.8
2023-11-07T13:49:43.438Z,6.0
2023-11-07T13:52:44.053Z,6.1
2023-11-07T13:54:44.684Z,6.2
2023-11-07T13:57:45.812Z,6.5
2023-11-07T13:59:46.468Z,6.9
2023-11-07T14:02:47.118Z,7.2
2023-11-07T14:04:47.983Z,7.2
2023-11-07T14:07:48.879Z,7.2
2023-11-07T14:09:49.550Z,7.4
2023-11-07T14:12:50.172Z,7.2
2023-11-07T14:17:50.856Z,6.5
2023-11-07T14:20:51.845Z,6.3
2023-11-07T14:22:52.549Z,6.2
2023-11-07T14:25:53.189Z,6.2
2023-11-07T14:27:53.840Z,6.4
2023-11-07T14:30:54.444Z,6.6
2023-11-07T14:32:55.242Z,6.6
2023-11-07T14:35:56.234Z,6.4
2023-11-07T14:37:56.902Z,6.2
2023-11-07T14:40:57.516Z,5.9
2023-11-07T14:42:58.123Z,5.7
2023-11-07T14:45:58.764Z,5.6
2023-11-07T14:47:59.480Z,5.4
2023-11-07T14:51:00.494Z,5.3
2023-11-07T14:53:01.309Z,5.1
2023-11-07T14:59:01.908Z,4.3
2023-11-07T15:01:02.517Z,3.8
2023-11-07T15:04:03.152Z,3.5
2023-11-07T15:06:04.399Z,3.2
2023-11-07T15:09:05.445Z,3.1
2023-11-07T15:11:06.133Z,2.9
2023-11-07T15:14:06.754Z,2.9
2023-11-07T15:16:07.343Z,2.8
2023-11-07T15:19:07.960Z,2.9
2023-11-07T15:21:08.904Z,3.3
2023-11-07T15:24:09.810Z,3.4
2023-11-07T15:26:10.503Z,3.4
2023-11-07T15:29:11.092Z,3.4
2023-11-07T15:32:11.681Z,3.9
2023-11-07T15:34:12.441Z,4.0
2023-11-07T15:39:13.606Z,3.9
2023-11-07T15:42:14.566Z,4.1
2023-11-07T15:44:15.383Z,4.1
2023-11-07T15:47:16.053Z,4.0
2023-11-07T15:49:16.797Z,3.9
2023-11-07T15:52:17.677Z,3.9
2023-11-07T15:54:18.272Z,3.9
2023-11-07T15:57:19.064Z,3.9
2023-11-07T15:59:19.781Z,3.9
2023-11-07T16:02:20.400Z,3.9
2023-11-07T16:04:21.221Z,3.9
2023-11-07T16:07:22.142Z,3.9
2023-11-07T16:09:22.796Z,3.7
2023-11-07T16:12:23.528Z,3.7
2023-11-07T16:14:24.232Z,3.6
2023-11-07T16:20:24.890Z,3.5
2023-11-07T16:25:25.595Z,3.6
2023-11-07T16:27:26.327Z,3.6
2023-11-07T16:30:27.018Z,3.6
2023-11-07T16:32:27.855Z,3.6
2023-11-07T16:35:28.598Z,3.5
2023-11-07T16:37:29.222Z,3.5
2023-11-07T16:40:29.814Z,3.5
2023-11-07T16:42:30.654Z,3.4
2023-11-07T16:45:31.365Z,3.3
2023-11-07T16:47:32.059Z,3.5
2023-11-07T16:50:32.959Z,3.5
2023-11-07T16:53:33.536Z,3.5
2023-11-07T16:55:34.111Z,3.5
2023-11-07T17:00:34.978Z,3.6
2023-11-07T17:03:35.713Z,3.7
2023-11-07T17:05:36.920Z,3.6
2023-11-07T17:08:37.742Z,3.6
2023-11-07T17:10:38.389Z,3.6
2023-11-07T17:13:39.010Z,3.7
2023-11-07T17:15:39.692Z,3.7
2023-11-07T17:18:40.522Z,3.7
2023-11-07T17:20:41.425Z,3.7
2023-11-07T17:23:42.046Z,3.8
2023-11-07T17:25:42.914Z,3.8
2023-11-07T17:28:43.487Z,3.9
2023-11-07T17:30:44.077Z,3.9
2023-11-07T17:33:44.908Z,3.9
2023-11-07T17:35:45.934Z,3.9
2023-11-07T17:40:46.600Z,3.9
2023-11-07T17:43:47.214Z,3.9
2023-11-07T17:46:47.858Z,3.9
2023-11-07T17:48:48.539Z,3.8
2023-11-07T17:51:49.454Z,3.8
2023-11-07T17:53:50.083Z,3.7
2023-11-07T17:56:50.674Z,3.7
2023-11-07T17:58:51.253Z,3.7
2023-11-07T18:01:51.874Z,3.6
2023-11-07T18:03:52.619Z,3.6
2023-11-07T18:06:53.508Z,3.5
2023-11-07T18:08:54.089Z,3.5
2023-11-07T18:11:54.685Z,3.6
2023-11-07T18:13:55.293Z,3.6
2023-11-07T18:16:55.883Z,3.6
2023-11-07T18:21:56.529Z,3.6
2023-11-07T18:24:57.175Z,3.6
2023-11-07T18:26:57.900Z,3.6
2023-11-07T18:29:58.656Z,3.5
2023-11-07T18:31:59.405Z,3.6
2023-11-07T18:35:00.091Z,3.6
2023-11-07T18:37:01.074Z,3.6
2023-11-07T18:40:01.754Z,3.6
2023-11-07T18:42:02.433Z,3.5
2023-11-07T18:45:03.206Z,3.5
2023-11-07T18:47:03.931Z,3.5
2023-11-07T18:50:04.565Z,3.5
2023-11-07T18:52:05.170Z,3.5
2023-11-07T18:55:05.781Z,3.5
2023-11-07T18:57:06.404Z,3.5
2023-11-07T19:03:07.155Z,3.5
2023-11-07T19:05:08.045Z,3.4
2023-11-07T19:07:08.736Z,3.4
2023-11-07T19:10:09.486Z,3.3
2023-11-07T19:13:10.141Z,3.3
2023-11-07T19:15:10.784Z,3.2
2023-11-07T19:18:11.497Z,3.2
2023-11-07T19:20:13.801Z,3.2
2023-11-07T19:23:14.387Z,3.2
2023-11-07T19:25:14.992Z,3.2
2023-11-07T19:28:15.638Z,3.2
2023-11-07T19:30:16.462Z,3.2
2023-11-07T19:33:17.252Z,3.1
2023-11-07T19:35:18.174Z,3.1
2023-11-07T19:38:18.801Z,3.1
2023-11-07T19:46:19.426Z,3.2
2023-11-07T19:48:20.161Z,3.2
2023-11-07T19:51:21.082Z,3.2
2023-11-07T19:53:21.872Z,3.2
2023-11-07T19:56:22.494Z,3.1
2023-11-07T19:58:23.065Z,3.1
2023-11-07T20:01:23.645Z,3.1
2023-11-07T20:03:24.273Z,3.1
2023-11-07T20:06:25.261Z,3.1
2023-11-07T20:08:26.290Z,3.0
2023-11-07T20:11:26.886Z,2.9
2023-11-07T20:13:27.504Z,2.7
2023-11-07T20:16:28.140Z,2.7
2023-11-07T20:18:28.913Z,2.7
2023-11-07T20:23:32.202Z,2.6
2023-11-07T20:26:34.422Z,2.6
2023-11-07T20:28:35.042Z,2.5
2023-11-07T20:31:35.690Z,2.5
2023-11-07T20:33:41.291Z,2.5
2023-11-07T20:36:51.241Z,2.5
2023-11-07T20:38:51.870Z,2.4
2023-11-07T20:41:52.488Z,2.3
2023-11-07T20:43:53.089Z,2.2
2023-11-07T20:46:53.678Z,2.1
2023-11-07T20:48:54.312Z,2.0
2023-11-07T20:51:55.194Z,1.9
2023-11-07T20:53:55.789Z,1.9
2023-11-07T20:56:56.433Z,1.8
2023-11-07T20:59:57.077Z,1.9
2023-11-07T21:04:57.767Z,1.8
2023-11-07T21:06:58.561Z,1.9
2023-11-07T21:09:59.157Z,1.9
2023-11-07T21:11:59.750Z,1.9
2023-11-07T21:15:00.337Z,1.8
2023-11-07T21:17:00.923Z,1.9
2023-11-07T21:20:01.531Z,1.9
2023-11-07T21:22:02.345Z,1.9
2023-11-07T21:25:03.160Z,1.9
2023-11-07T21:27:03.799Z,2.0
2023-11-07T21:30:04.774Z,2.0
2023-11-07T21:33:05.662Z,2.1
2023-11-07T21:35:06.674Z,2.1
2023-11-07T21:38:07.233Z,2.1
2023-11-07T21:40:07.864Z,2.1
2023-11-07T21:45:08.524Z,2.1
2023-11-07T21:48:09.319Z,2.1
2023-11-07T21:50:10.405Z,2.1
2023-11-07T21:53:11.113Z,2.1
2023-11-07T21:55:11.728Z,2.1
2023-11-07T21:58:12.342Z,2.1
2023-11-07T22:00:13.038Z,2.0
2023-11-07T22:03:13.866Z,1.9
2023-11-07T22:05:14.934Z,1.9
2023-11-07T22:08:15.736Z,2.0
2023-11-07T22:10:16.326Z,2.1
2023-11-07T22:13:16.930Z,2.2
2023-11-07T22:15:17.560Z,2.2
2023-11-07T22:18:18.251Z,2.3
2023-11-07T22:20:18.898Z,2.3
2023-11-07T22:26:19.497Z,2.3
2023-11-07T22:28:20.131Z,2.3
2023-11-07T22:31:20.758Z,2.3
2023-11-07T22:33:21.387Z,2.3
2023-11-07T22:36:22.357Z,2.2
2023-11-07T22:38:23.649Z,2.1
2023-11-07T22:41:24.231Z,2.1
2023-11-07T22:43:24.828Z,2.1
2023-11-07T22:46:25.447Z,2.1
2023-11-07T22:48:26.044Z,2.1
2023-11-07T22:51:26.878Z,2.1
2023-11-07T22:53:27.596Z,2.1
2023-11-07T22:56:28.192Z,2.0
2023-11-07T22:59:28.837Z,2.0
2023-11-07T23:01:29.433Z,2.0
2023-11-07T23:06:30.075Z,1.9
2023-11-07T23:09:30.825Z,2.0
2023-11-07T23:11:31.559Z,2.1
2023-11-07T23:14:32.126Z,2.1
2023-11-07T23:16:32.734Z,2.1
2023-11-07T23:19:33.328Z,2.2
2023-11-07T23:21:34.090Z,2.2
2023-11-07T23:24:34.813Z,2.2
2023-11-07T23:26:38.705Z,2.2
2023-11-07T23:29:49.451Z,2.3
2023-11-07T23:31:50.039Z,2.3
2023-11-07T23:34:50.618Z,2.3
2023-11-07T23:36:51.376Z,2.3
2023-11-07T23:39:52.107Z,2.3
2023-11-07T23:41:52.686Z,2.3
2023-11-07T23:46:53.316Z,2.3
2023-11-07T23:49:54.019Z,2.3
2023-11-07T23:51:54.636Z,2.3
2023-11-07T23:54:55.224Z,2.3
2023-11-07T23:56:55.845Z,2.3
2023-11-07T23:59:56.448Z,2.2
